Nearby METAR Reports

 

K1A5 - Macon/Franklin, North Carolina, USA
Distance from station: WSW 16mi, 25km
Updated: Fri, 29-Jul-2022 3:55pm EDT
NOT Current
Mostly cloudy
Mostly cloudy
 Wind from N
Wind: N 5 mph , 7 km/h
Temperature: 82°F , 28°C
Heat Index: 86°F , 30°C
Dew Point: 72°F , 22°C
Humidity: 70%
Barometer: 30.15 inHg , 1021 hPa
Clouds: Mostly cloudy
Visibility: 10 miles , 16 km
Cloud details: Partly cloudy 3100 ft
Partly cloudy 3700 ft
Mostly cloudy 4600 ft
2022/07/29 19:55 K1A5 291955Z AUTO 01004KT 10SM SCT031 SCT037 BKN046 28/22 A3015 RMK AO2 T02760216
KAVL - Asheville, North Carolina, USA
Distance from station: ENE 36mi, 59km
Updated: Sun, 07-Aug-2022 7:54pm EDT
Clear
Clear
 Wind from N
Wind: N 7 mph , 11 km/h
Temperature: 73°F , 23°C
Dew Point: 68°F , 20°C
Humidity: 83%
Barometer: 30.25 inHg , 1024.4 hPa
Clouds: Clear
Visibility: 10 miles , 16 km
2022/08/07 23:54 KAVL 072354Z 01006KT 10SM CLR 23/20 A3025 RMK AO2 LTG DSNT SE AND S SLP219 T02330200 10294 20233 51007
 
KRHP - Andrews, North Carolina, USA
Distance from station: WSW 40mi, 64km
Updated: Sun, 07-Aug-2022 8:35pm EDT
Clear
Clear
 Wind from calm
Wind: Calm
Temperature: 75°F , 24°C
Dew Point: 70°F , 21°C
Humidity: 83%
Barometer: 30.23 inHg , 1023.7 hPa
Clouds: Clear
Visibility: 10 miles , 16 km
2022/08/08 00:35 KRHP 080035Z AUTO 00000KT 10SM CLR 24/21 A3023 RMK AO2 T02380205
KLQK - Pickens, South Carolina, USA
Distance from station: SE 42mi, 68km
Updated: Sun, 07-Aug-2022 8:35pm EDT
Mostly cloudy
Mostly cloudy
 Wind from calm
Wind: Calm
Temperature: 81°F , 27°C
Heat Index: 86°F , 30°C
Dew Point: 73°F , 23°C
Humidity: 79%
Barometer: 30.18 inHg , 1022 hPa
Clouds: Mostly cloudy
Visibility: 10 miles , 16 km
Cloud details: Mostly cloudy 3900 ft
Mostly cloudy 5000 ft
Mostly cloudy 6000 ft
2022/08/08 00:35 KLQK 080035Z AUTO 00000KT 10SM BKN039 BKN050 BKN060 27/23 A3018 RMK AO2 T02670226
 
KCEU - Clemson, South Carolina, USA
Distance from station: SSE 46mi, 75km
Updated: Sun, 07-Aug-2022 8:35pm EDT
Thunderstorm, Few clouds
Thunderstorm, Few clouds
 Wind from WNW
Wind: WNW 3 mph , 6 km/h
Temperature: 79°F , 26°C
Dew Point: 70°F , 21°C
Humidity: 74%
Barometer: 30.18 inHg , 1022 hPa
Summary: Thunderstorm
Clouds: Few Clouds
Visibility: 10 miles , 16 km
Cloud details: Few Clouds 4900 ft
2022/08/08 00:35 KCEU 080035Z AUTO 29003KT 10SM TS FEW049 26/21 A3018 RMK AO2 LTG DSNT E TSB29 T02610206
KTOC - Toccoa, Georgia, USA
Distance from station: S 49mi, 79km
Updated: Tue, 02-Aug-2022 11:15am EDT
NOT Current
Clear
Clear
 Wind from calm
Wind: Calm
Temperature: 86°F , 30°C
Heat Index: 91°F , 33°C
Dew Point: 70°F , 21°C
Humidity: 59%
Barometer: 30.10 inHg , 1019.3 hPa
Clouds: Clear
2022/08/02 15:15 KTOC 021515Z AUTO 00000KT CLR 30/21 A3010 RMK AO2 T02990208 PWINO